createdAt,value
2017-11-27T00:02:01.934Z,7.50
2017-11-27T00:04:29.634Z,7.50
2017-11-27T00:06:58.821Z,7.40
2017-11-27T00:09:26.493Z,7.50
2017-11-27T00:11:54.877Z,7.40
2017-11-27T00:14:23.360Z,7.40
2017-11-27T00:16:51.741Z,7.40
2017-11-27T00:19:20.871Z,7.40
2017-11-27T00:21:48.563Z,7.40
2017-11-27T00:24:16.261Z,7.50
2017-11-27T00:26:45.376Z,7.50
2017-11-27T00:29:13.739Z,7.50
2017-11-27T00:31:42.940Z,7.50
2017-11-27T00:34:11.321Z,7.40
2017-11-27T00:36:40.451Z,7.40
2017-11-27T00:39:08.045Z,7.50
2017-11-27T00:41:35.752Z,7.40
2017-11-27T00:44:04.129Z,7.40
2017-11-27T00:46:32.517Z,7.40
2017-11-27T00:49:00.989Z,7.40
2017-11-27T00:51:29.383Z,7.40
2017-11-27T00:53:57.733Z,7.40
2017-11-27T00:56:29.276Z,7.40
2017-11-27T00:58:56.866Z,7.40
2017-11-27T01:01:25.238Z,7.40
2017-11-27T01:03:53.598Z,7.40
2017-11-27T01:06:21.190Z,7.40
2017-11-27T01:08:48.841Z,7.40
2017-11-27T01:11:17.206Z,7.40
2017-11-27T01:13:44.831Z,7.40
2017-11-27T01:16:12.426Z,7.40
2017-11-27T01:18:40.114Z,7.40
2017-11-27T01:21:08.498Z,7.40
2017-11-27T01:23:36.979Z,7.40
2017-11-27T01:26:05.357Z,7.40
2017-11-27T01:28:33.743Z,7.40
2017-11-27T01:31:02.102Z,7.40
2017-11-27T01:33:29.777Z,7.40
2017-11-27T01:35:57.359Z,7.40
2017-11-27T01:38:25.742Z,7.40
2017-11-27T01:40:54.097Z,7.40
2017-11-27T01:43:22.486Z,7.40
2017-11-27T01:45:50.967Z,7.30
2017-11-27T01:48:19.322Z,7.30
2017-11-27T01:50:46.937Z,7.30
2017-11-27T01:53:14.532Z,7.40
2017-11-27T01:55:42.229Z,7.40
2017-11-27T01:58:09.887Z,7.40
2017-11-27T02:00:39.022Z,7.40
2017-11-27T02:03:06.654Z,7.40
2017-11-27T02:05:35.134Z,7.40
2017-11-27T02:08:03.494Z,7.40
2017-11-27T02:10:31.105Z,7.40
2017-11-27T02:12:58.738Z,7.40
2017-11-27T02:15:26.340Z,7.40
2017-11-27T02:17:53.961Z,7.40
2017-11-27T02:20:22.438Z,7.40
2017-11-27T02:22:50.036Z,7.40
2017-11-27T02:25:17.624Z,7.40
2017-11-27T02:27:45.237Z,7.40
2017-11-27T02:30:13.610Z,7.40
2017-11-27T02:32:42.084Z,7.40
2017-11-27T02:35:11.174Z,7.40
2017-11-27T02:37:40.479Z,7.40
2017-11-27T02:40:08.150Z,7.40
2017-11-27T02:42:37.345Z,7.40
2017-11-27T02:45:05.014Z,7.40
2017-11-27T02:47:34.136Z,7.30
2017-11-27T02:50:02.594Z,7.40
2017-11-27T02:52:31.078Z,7.30
2017-11-27T02:54:59.457Z,7.30
2017-11-27T02:57:27.838Z,7.30
2017-11-27T02:59:55.440Z,7.30
2017-11-27T03:02:23.067Z,7.30
2017-11-27T03:04:51.455Z,7.30
2017-11-27T03:07:19.822Z,7.30
2017-11-27T03:09:48.196Z,7.20
2017-11-27T03:12:16.582Z,7.20
2017-11-27T03:14:45.062Z,7.20
2017-11-27T03:17:12.645Z,7.20
2017-11-27T03:19:41.018Z,7.20
2017-11-27T03:22:09.370Z,7.20
2017-11-27T03:24:37.046Z,7.20
2017-11-27T03:27:05.405Z,7.20
2017-11-27T03:29:33.018Z,7.20
2017-11-27T03:32:00.618Z,7.20
2017-11-27T03:34:28.234Z,7.20
2017-11-27T03:36:56.593Z,7.20
2017-11-27T03:39:24.970Z,7.20
2017-11-27T03:41:53.317Z,7.20
2017-11-27T03:44:21.009Z,7.20
2017-11-27T03:46:48.681Z,7.20
2017-11-27T03:49:17.058Z,7.20
2017-11-27T03:51:45.437Z,7.20
2017-11-27T03:54:14.541Z,7.10
2017-11-27T03:56:43.010Z,7.10
2017-11-27T03:59:10.677Z,7.10
2017-11-27T04:01:38.294Z,7.10
2017-11-27T04:04:05.906Z,7.10
2017-11-27T04:06:35.034Z,7.00
2017-11-27T04:09:02.623Z,7.00
2017-11-27T04:11:30.243Z,7.00
2017-11-27T04:13:58.589Z,7.00
2017-11-27T04:16:26.270Z,7.00
2017-11-27T04:18:54.651Z,7.10
2017-11-27T04:21:22.307Z,7.10
2017-11-27T04:23:49.928Z,7.00
2017-11-27T04:26:17.543Z,7.00
2017-11-27T04:28:45.943Z,7.10
2017-11-27T04:31:13.582Z,7.00
2017-11-27T04:33:42.123Z,7.00
2017-11-27T04:36:09.725Z,7.00
2017-11-27T04:38:38.837Z,7.00
2017-11-27T04:41:07.297Z,7.00
2017-11-27T04:43:36.497Z,7.00
2017-11-27T04:46:04.086Z,7.00
2017-11-27T04:48:32.468Z,7.00
2017-11-27T04:51:00.846Z,7.00
2017-11-27T04:53:29.249Z,7.00
2017-11-27T04:55:56.853Z,7.00
2017-11-27T04:58:24.443Z,7.00
2017-11-27T05:00:52.905Z,7.00
2017-11-27T05:03:20.554Z,7.00
2017-11-27T05:05:48.228Z,7.00
2017-11-27T05:08:15.813Z,7.00
2017-11-27T05:10:44.213Z,7.00
2017-11-27T05:13:11.806Z,7.00
2017-11-27T05:15:39.427Z,7.00
2017-11-27T05:18:07.028Z,7.00
2017-11-27T05:20:34.642Z,7.00
2017-11-27T05:23:02.995Z,7.00
2017-11-27T05:25:30.604Z,7.00
2017-11-27T05:27:58.227Z,7.00
2017-11-27T05:30:25.953Z,7.00
2017-11-27T05:32:53.650Z,7.00
2017-11-27T05:35:21.302Z,7.00
2017-11-27T05:37:48.922Z,7.00
2017-11-27T05:40:16.512Z,7.00
2017-11-27T05:42:44.147Z,7.00
2017-11-27T05:45:11.729Z,7.10
2017-11-27T05:47:39.344Z,7.10
2017-11-27T05:50:07.702Z,7.10
2017-11-27T05:52:35.308Z,7.00
2017-11-27T05:55:02.913Z,7.10
2017-11-27T05:57:30.558Z,7.10
2017-11-27T05:59:58.153Z,7.10
2017-11-27T06:02:25.820Z,7.10
2017-11-27T06:04:54.262Z,7.10
2017-11-27T06:07:21.878Z,7.10
2017-11-27T06:09:49.520Z,7.10
2017-11-27T06:12:17.190Z,7.10
2017-11-27T06:14:46.389Z,7.10
2017-11-27T06:17:14.799Z,7.00
2017-11-27T06:19:42.389Z,7.00
2017-11-27T06:22:09.973Z,7.00
2017-11-27T06:24:37.586Z,7.00
2017-11-27T06:27:05.183Z,7.00
2017-11-27T06:29:32.807Z,7.00
2017-11-27T06:32:00.404Z,7.00
2017-11-27T06:34:28.014Z,7.00
2017-11-27T06:36:56.372Z,7.10
2017-11-27T06:39:24.058Z,7.00
2017-11-27T06:41:52.413Z,7.10
2017-11-27T06:44:20.091Z,7.10
2017-11-27T06:46:48.442Z,7.00
2017-11-27T06:49:16.129Z,7.00
2017-11-27T06:51:43.807Z,6.90
2017-11-27T06:54:12.223Z,6.90
2017-11-27T06:56:39.898Z,6.90
2017-11-27T06:59:07.598Z,6.90
2017-11-27T07:01:35.265Z,6.90
2017-11-27T07:04:02.930Z,6.90
2017-11-27T07:06:31.414Z,7.00
2017-11-27T07:08:59.769Z,7.00
2017-11-27T07:11:27.389Z,7.00
2017-11-27T07:13:54.989Z,7.00
2017-11-27T07:16:22.609Z,7.00
2017-11-27T07:18:50.244Z,7.00
2017-11-27T07:21:18.721Z,6.90
2017-11-27T07:23:46.311Z,6.90
2017-11-27T07:26:13.934Z,6.90
2017-11-27T07:28:41.605Z,6.90
2017-11-27T07:31:09.261Z,6.90
2017-11-27T07:33:36.934Z,6.80
2017-11-27T08:31:08.230Z,6.10
2017-11-27T08:33:35.894Z,6.20
2017-11-27T08:36:03.557Z,6.30
2017-11-27T08:38:31.150Z,6.50
2017-11-27T08:40:58.762Z,6.60
2017-11-27T08:43:26.353Z,6.70
2017-11-27T08:45:54.822Z,6.90
2017-11-27T08:48:22.418Z,6.90
2017-11-27T08:50:50.030Z,6.90
2017-11-27T08:53:17.631Z,7.00
2017-11-27T08:55:46.100Z,7.00
2017-11-27T08:58:14.458Z,7.10
2017-11-27T09:00:42.133Z,7.10
2017-11-27T09:03:09.793Z,7.10
2017-11-27T09:05:37.386Z,7.20
2017-11-27T09:08:05.017Z,7.20
2017-11-27T09:10:33.398Z,7.30
2017-11-27T09:13:01.017Z,7.30
2017-11-27T09:15:28.605Z,7.30
2017-11-27T09:17:56.226Z,7.40
2017-11-27T09:20:23.821Z,7.40
2017-11-27T09:22:51.438Z,7.40
2017-11-27T09:25:19.022Z,7.40
2017-11-27T09:27:46.731Z,7.40
2017-11-27T09:30:15.198Z,7.40
2017-11-27T09:32:42.874Z,7.40
2017-11-27T09:35:10.543Z,7.40
2017-11-27T09:37:38.909Z,7.40
2017-11-27T09:40:06.539Z,7.40
2017-11-27T09:42:34.133Z,7.40
2017-11-27T09:45:01.803Z,7.40
2017-11-27T09:47:30.181Z,7.50
2017-11-27T09:49:57.841Z,7.50
2017-11-27T09:52:27.047Z,7.50
2017-11-27T09:54:55.527Z,7.50
2017-11-27T09:57:23.882Z,7.60
2017-11-27T09:59:51.565Z,7.60
2017-11-27T10:02:19.229Z,7.60
2017-11-27T10:04:46.833Z,7.60
2017-11-27T10:07:14.458Z,7.60
2017-11-27T10:09:43.575Z,7.60
2017-11-27T10:12:11.930Z,7.60
2017-11-27T10:14:42.057Z,7.60
2017-11-27T10:17:10.418Z,7.60
2017-11-27T10:19:38.094Z,7.60
2017-11-27T10:22:06.574Z,7.70
2017-11-27T10:24:34.925Z,7.70
2017-11-27T10:27:02.617Z,7.60
2017-11-27T10:29:30.969Z,7.60
2017-11-27T10:31:58.659Z,7.70
2017-11-27T10:34:27.036Z,7.70
2017-11-27T10:36:56.158Z,7.60
2017-11-27T10:39:24.618Z,7.70
2017-11-27T10:41:52.994Z,7.60
2017-11-27T10:44:20.591Z,7.60
2017-11-27T10:46:48.225Z,7.60
2017-11-27T10:49:16.574Z,7.70
2017-11-27T10:51:44.183Z,7.60
2017-11-27T10:54:12.642Z,7.70
2017-11-27T10:56:41.127Z,7.80
2017-11-27T10:59:10.223Z,7.70
2017-11-27T11:01:38.602Z,7.80
2017-11-27T11:04:06.209Z,7.70
2017-11-27T11:06:33.797Z,7.70
2017-11-27T11:09:01.396Z,7.80
2017-11-27T11:11:29.761Z,7.80
2017-11-27T11:13:58.135Z,7.80
2017-11-27T11:16:25.823Z,7.90
2017-11-27T11:18:54.201Z,8.00
2017-11-27T11:21:22.561Z,8.00
2017-11-27T11:23:50.226Z,8.00
2017-11-27T11:26:18.580Z,8.10
2017-11-27T11:28:46.273Z,8.10
2017-11-27T11:31:15.470Z,8.10
2017-11-27T11:33:43.842Z,8.20
2017-11-27T11:36:11.431Z,8.10
2017-11-27T11:38:39.841Z,8.20
2017-11-27T11:41:07.429Z,8.20
2017-11-27T11:43:35.013Z,8.20
2017-11-27T11:46:03.456Z,8.20
2017-11-27T11:48:31.038Z,8.20
2017-11-27T11:50:58.716Z,8.20
2017-11-27T11:53:27.806Z,8.30
2017-11-27T11:55:55.413Z,8.30
2017-11-27T11:58:23.022Z,8.30
2017-11-27T12:00:50.621Z,8.30
2017-11-27T12:03:18.973Z,8.30
2017-11-27T12:05:47.341Z,8.30
2017-11-27T12:08:15.023Z,8.20
2017-11-27T12:10:44.146Z,8.30
2017-11-27T12:13:12.593Z,8.30
2017-11-27T12:15:40.254Z,8.30
2017-11-27T12:18:07.926Z,8.30
2017-11-27T12:20:36.275Z,8.40
2017-11-27T12:23:03.966Z,8.40
2017-11-27T12:25:33.054Z,8.40
2017-11-27T12:28:01.445Z,8.40
2017-11-27T12:30:29.106Z,8.40
2017-11-27T12:32:58.217Z,8.30
2017-11-27T12:35:26.556Z,8.30
2017-11-27T12:37:54.158Z,8.30
2017-11-27T12:40:22.506Z,8.40
2017-11-27T12:42:50.117Z,8.40
2017-11-27T12:45:17.738Z,8.40
2017-11-27T12:47:46.114Z,8.40
2017-11-27T12:50:13.751Z,8.40
2017-11-27T12:52:41.353Z,8.30
2017-11-27T12:55:08.938Z,8.30
2017-11-27T12:57:36.670Z,8.30
2017-11-27T13:00:04.334Z,8.30
2017-11-27T13:02:33.430Z,8.30
2017-11-27T13:05:01.034Z,8.30
2017-11-27T13:07:28.617Z,8.30
2017-11-27T13:09:56.222Z,8.20
2017-11-27T13:12:23.881Z,8.20
2017-11-27T13:14:52.358Z,8.20
2017-11-27T13:17:20.739Z,8.20
2017-11-27T13:19:49.158Z,8.20
2017-11-27T13:22:16.742Z,8.20
2017-11-27T13:24:44.442Z,8.20
2017-11-27T13:27:13.533Z,8.10
2017-11-27T13:29:41.909Z,8.10
2017-11-27T13:32:09.490Z,8.10
2017-11-27T13:34:37.881Z,8.10
2017-11-27T13:37:06.349Z,8.10
2017-11-27T13:39:34.723Z,8.10
2017-11-27T13:42:03.922Z,8.10
2017-11-27T13:44:31.582Z,8.10
2017-11-27T13:46:59.245Z,8.10
2017-11-27T13:49:28.441Z,8.00
2017-11-27T13:51:56.050Z,8.00
2017-11-27T13:54:23.670Z,8.00
2017-11-27T13:56:52.048Z,7.90
2017-11-27T13:59:19.709Z,7.90
2017-11-27T14:01:48.822Z,7.80
2017-11-27T14:04:17.168Z,7.80
2017-11-27T14:06:44.777Z,7.80
2017-11-27T14:09:13.198Z,7.80
2017-11-27T14:11:40.893Z,7.80
2017-11-27T14:14:09.370Z,7.70
2017-11-27T14:16:36.957Z,7.70
2017-11-27T14:19:05.434Z,7.70
2017-11-27T14:21:33.795Z,7.70
2017-11-27T14:24:01.457Z,7.70
2017-11-27T14:26:29.817Z,7.70
2017-11-27T14:28:57.430Z,7.70
2017-11-27T14:31:25.022Z,7.70
2017-11-27T14:33:52.625Z,7.70
2017-11-27T14:36:20.978Z,7.60
2017-11-27T14:38:49.277Z,7.60
2017-11-27T14:41:18.482Z,7.50
2017-11-27T14:43:46.959Z,7.40
2017-11-27T14:46:15.338Z,7.30
2017-11-27T14:48:43.722Z,7.30
2017-11-27T14:51:12.815Z,7.30
2017-11-27T14:53:41.294Z,7.30
2017-11-27T14:56:08.877Z,7.20
2017-11-27T14:58:37.229Z,7.10
2017-11-27T15:01:04.898Z,7.10
2017-11-27T15:03:32.486Z,7.10
2017-11-27T15:06:00.903Z,7.00
2017-11-27T15:08:28.606Z,7.00
2017-11-27T15:10:57.086Z,7.00
2017-11-27T15:13:25.451Z,6.90
2017-11-27T15:15:53.126Z,6.90
2017-11-27T15:18:20.789Z,6.80
2017-11-27T15:20:48.449Z,6.80
2017-11-27T15:23:16.118Z,6.80
2017-11-27T15:25:44.493Z,6.70
2017-11-27T15:28:12.082Z,6.70
2017-11-27T15:30:40.434Z,6.70
2017-11-27T15:33:08.093Z,6.70
2017-11-27T15:35:35.758Z,6.70
2017-11-27T15:38:03.381Z,6.60
2017-11-27T15:40:30.981Z,6.60
2017-11-27T15:42:58.590Z,6.70
2017-11-27T15:45:26.206Z,6.60
2017-11-27T15:47:53.821Z,6.60
2017-11-27T15:50:21.412Z,6.50
2017-11-27T15:52:49.027Z,6.50
2017-11-27T15:55:16.619Z,6.40
2017-11-27T15:57:44.322Z,6.40
2017-11-27T16:00:11.910Z,6.40
2017-11-27T16:02:39.517Z,6.40
2017-11-27T16:05:07.133Z,6.30
2017-11-27T16:07:34.742Z,6.30
2017-11-27T16:10:02.340Z,6.30
2017-11-27T16:12:29.985Z,6.30
2017-11-27T16:14:57.572Z,6.30
2017-11-27T16:17:25.926Z,6.30
2017-11-27T16:19:53.534Z,6.20
2017-11-27T16:22:21.249Z,6.30
2017-11-27T16:24:48.862Z,6.30
2017-11-27T16:27:16.487Z,6.30
2017-11-27T16:29:44.865Z,6.40
2017-11-27T16:32:13.320Z,6.30
2017-11-27T16:34:40.929Z,6.30
2017-11-27T16:37:08.515Z,6.40
2017-11-27T16:39:36.117Z,6.30
2017-11-27T16:42:03.782Z,6.30
2017-11-27T16:44:31.446Z,6.30
2017-11-27T16:46:59.034Z,6.30
2017-11-27T16:49:27.409Z,6.30
2017-11-27T16:51:55.762Z,6.40
2017-11-27T16:54:23.435Z,6.40
2017-11-27T16:56:51.795Z,6.40
2017-11-27T16:59:19.406Z,6.40
2017-11-27T17:01:47.031Z,6.40
2017-11-27T17:04:14.694Z,6.40
2017-11-27T17:06:42.277Z,6.40
2017-11-27T17:09:10.654Z,6.40
2017-11-27T17:11:39.006Z,6.40
2017-11-27T17:14:06.638Z,6.40
2017-11-27T17:16:34.238Z,6.40
2017-11-27T17:19:01.842Z,6.30
2017-11-27T17:21:29.450Z,6.30
2017-11-27T17:23:57.041Z,6.30
2017-11-27T17:26:25.502Z,6.30
2017-11-27T17:28:53.090Z,6.30
2017-11-27T17:31:20.706Z,6.30
2017-11-27T17:33:48.385Z,6.30
2017-11-27T17:36:16.774Z,6.30
2017-11-27T17:38:45.127Z,6.30
2017-11-27T17:41:12.737Z,6.30
2017-11-27T17:46:13.262Z,6.30
2017-11-27T17:48:41.634Z,6.20
2017-11-27T17:51:09.237Z,6.20
2017-11-27T17:53:36.830Z,6.20
2017-11-27T17:56:04.454Z,6.20
2017-11-27T17:58:32.082Z,6.20
2017-11-27T18:00:59.666Z,6.20
2017-11-27T18:03:28.038Z,6.20
2017-11-27T18:05:56.398Z,6.20
2017-11-27T18:08:24.057Z,6.20
2017-11-27T18:10:51.725Z,6.20
2017-11-27T18:13:19.338Z,6.20
2017-11-27T18:15:46.930Z,6.20
2017-11-27T18:18:14.609Z,6.20
2017-11-27T18:20:42.958Z,6.30
2017-11-27T18:23:10.635Z,6.30
2017-11-27T18:25:38.321Z,6.30
2017-11-27T18:28:05.989Z,6.30
2017-11-27T18:30:34.357Z,6.30
2017-11-27T18:33:02.022Z,6.30
2017-11-27T18:35:29.612Z,6.30
2017-11-27T18:37:57.230Z,6.20
2017-11-27T18:40:24.821Z,6.20
2017-11-27T18:42:53.290Z,6.30
2017-11-27T18:45:20.882Z,6.30
2017-11-27T18:47:48.513Z,6.30
2017-11-27T18:50:16.893Z,6.30
2017-11-27T18:52:44.551Z,6.30
2017-11-27T18:55:12.162Z,6.30
2017-11-27T18:57:39.754Z,6.30
2017-11-27T19:00:07.367Z,6.30
2017-11-27T19:02:34.997Z,6.30
2017-11-27T19:05:02.606Z,6.30
2017-11-27T19:07:30.193Z,6.30
2017-11-27T19:09:57.813Z,6.40
2017-11-27T19:12:25.397Z,6.40
2017-11-27T19:14:53.006Z,6.40
2017-11-27T19:17:20.669Z,6.40
2017-11-27T19:19:49.254Z,6.50
2017-11-27T19:22:16.846Z,6.50
2017-11-27T19:24:44.574Z,6.50
2017-11-27T19:27:12.163Z,6.50
2017-11-27T19:29:40.522Z,6.50
2017-11-27T19:32:08.904Z,6.50
2017-11-27T19:34:36.561Z,6.40
2017-11-27T19:37:04.176Z,6.50
2017-11-27T19:39:31.770Z,6.50
2017-11-27T19:41:59.440Z,6.60
2017-11-27T19:44:27.033Z,6.60
2017-11-27T19:46:55.412Z,6.60
2017-11-27T19:49:23.762Z,6.60
2017-11-27T19:51:51.421Z,6.60
2017-11-27T19:54:19.093Z,6.60
2017-11-27T19:56:46.705Z,6.60
2017-11-27T19:59:14.318Z,6.70
2017-11-27T20:01:42.694Z,6.70
2017-11-27T20:04:10.363Z,6.70
2017-11-27T20:06:38.018Z,6.70
2017-11-27T20:09:05.688Z,6.70
2017-11-27T20:11:34.043Z,6.80
2017-11-27T20:14:01.655Z,6.80
2017-11-27T20:16:29.270Z,6.80
2017-11-27T20:18:56.893Z,6.80
2017-11-27T20:21:24.481Z,6.90
2017-11-27T20:23:52.095Z,6.90
2017-11-27T20:26:20.550Z,6.90
2017-11-27T20:28:48.158Z,6.90
2017-11-27T20:31:15.839Z,7.00
2017-11-27T20:33:43.538Z,7.00
2017-11-27T20:36:11.134Z,7.00
2017-11-27T20:38:38.741Z,7.00
2017-11-27T20:41:06.326Z,7.00
2017-11-27T20:43:34.674Z,7.10
2017-11-27T20:46:02.280Z,7.10
2017-11-27T20:48:30.629Z,7.10
2017-11-27T20:50:58.249Z,7.10
2017-11-27T20:53:25.837Z,7.10
2017-11-27T20:55:53.528Z,7.20
2017-11-27T20:58:22.614Z,7.20
2017-11-27T21:00:50.281Z,7.20
2017-11-27T21:03:17.871Z,7.20
2017-11-27T21:05:46.245Z,7.30
2017-11-27T21:08:14.597Z,7.30
2017-11-27T21:10:42.203Z,7.30
2017-11-27T21:13:09.836Z,7.30
2017-11-27T21:15:38.950Z,7.40
2017-11-27T21:18:07.413Z,7.40
2017-11-27T21:20:36.510Z,7.40
2017-11-27T21:23:04.985Z,7.40
2017-11-27T21:25:32.653Z,7.40
2017-11-27T21:28:01.025Z,7.50
2017-11-27T21:30:28.615Z,7.40
2017-11-27T21:32:56.990Z,7.40
2017-11-27T21:35:25.450Z,7.40
2017-11-27T21:37:53.062Z,7.40
2017-11-27T21:40:20.669Z,7.40
2017-11-27T21:42:48.278Z,7.50
2017-11-27T21:45:15.865Z,7.50
2017-11-27T21:47:43.482Z,7.50
2017-11-27T21:50:11.825Z,7.50
2017-11-27T21:52:39.498Z,7.50
2017-11-27T21:55:07.094Z,7.50
2017-11-27T21:57:34.822Z,7.50
2017-11-27T22:00:03.178Z,7.60
2017-11-27T22:02:30.766Z,7.50
2017-11-27T22:04:59.885Z,7.60
2017-11-27T22:07:28.234Z,7.60
2017-11-27T22:09:55.841Z,7.60
2017-11-27T22:12:23.465Z,7.60
2017-11-27T22:14:51.130Z,7.60
2017-11-27T22:17:19.505Z,7.60
2017-11-27T22:19:48.619Z,7.60
2017-11-27T22:22:16.967Z,7.60
2017-11-27T22:24:44.581Z,7.60
2017-11-27T22:27:12.202Z,7.60
2017-11-27T22:29:41.406Z,7.70
2017-11-27T22:32:09.754Z,7.80
2017-11-27T22:34:37.455Z,7.80
2017-11-27T22:37:06.646Z,7.70
2017-11-27T22:39:35.031Z,7.80
2017-11-27T22:42:02.637Z,7.70
2017-11-27T22:44:30.222Z,7.80
2017-11-27T22:46:57.913Z,7.70
2017-11-27T22:49:25.574Z,7.70
2017-11-27T22:51:53.953Z,7.80
2017-11-27T22:54:22.329Z,7.80
2017-11-27T22:56:49.937Z,7.80
2017-11-27T22:59:17.553Z,7.80
2017-11-27T23:01:45.165Z,7.80
2017-11-27T23:04:12.779Z,7.90
2017-11-27T23:06:41.982Z,7.90
2017-11-27T23:09:10.330Z,7.90
2017-11-27T23:11:38.021Z,7.90
2017-11-27T23:14:07.224Z,7.90
2017-11-27T23:16:35.579Z,7.90
2017-11-27T23:19:03.195Z,7.90
2017-11-27T23:21:30.779Z,7.90
2017-11-27T23:23:58.481Z,7.90
2017-11-27T23:26:27.680Z,7.80
2017-11-27T23:28:56.049Z,7.90
2017-11-27T23:31:23.625Z,7.90
2017-11-27T23:33:51.992Z,7.90
2017-11-27T23:36:19.565Z,7.90
2017-11-27T23:38:47.933Z,7.80
2017-11-27T23:41:16.431Z,7.80
2017-11-27T23:43:44.901Z,7.80
2017-11-27T23:46:12.483Z,7.80
2017-11-27T23:48:40.934Z,7.90
2017-11-27T23:51:08.514Z,7.90
2017-11-27T23:53:37.700Z,8.00
2017-11-27T23:56:05.366Z,7.90
2017-11-27T23:58:32.985Z,8.00
